Vandiver Village, Missouri
Current Conditions -  °F | °C
As of 11:54 AM on Monday 26 Jan 2015 (Local Time) from KCOU Reporting Station
Broken Clouds Broken Clouds  
Wind Chill: 35°   Ceiling: 12000
Heat Index: 42°   Visibility: 10mi
Dew Point: 33°   Wind: 15mph
Humidity: 70%   Direction: 220°SW
Pressure: 29.91"   Gusts: NA
Location:  39.1882°N, 91.8924°W
Report Text: KCOU 261754Z 22013KT 10SM BKN120 06/01 A2991 RMK AO2 SLP134 T00560006 10056 21017 58040
Loading
Personal Weather Stations






























Interactive Weather Map New forecast layout! Learn more

10-Day Weather Forecast

Advertisements
Track Severe Weather on mobile